sensor_id;sensor_type;location;lat;lon;timestamp;P1;durP1;ratioP1;P2;durP2;ratioP2
72949;SDS011;64868;45.710;9.590;2023-03-01T00:02:48;33.25;;;18.38;;
72949;SDS011;64868;45.710;9.590;2023-03-01T00:05:21;32.45;;;17.90;;
72949;SDS011;64868;45.710;9.590;2023-03-01T00:07:57;34.00;;;18.60;;
72949;SDS011;64868;45.710;9.590;2023-03-01T00:10:29;34.28;;;18.35;;
72949;SDS011;64868;45.710;9.590;2023-03-01T00:12:59;33.95;;;18.88;;
72949;SDS011;64868;45.710;9.590;2023-03-01T00:15:30;33.30;;;18.15;;
72949;SDS011;64868;45.710;9.590;2023-03-01T00:20:30;32.78;;;18.33;;
72949;SDS011;64868;45.710;9.590;2023-03-01T00:23:00;32.10;;;17.88;;
72949;SDS011;64868;45.710;9.590;2023-03-01T00:25:33;36.83;;;18.90;;
72949;SDS011;64868;45.710;9.590;2023-03-01T00:28:03;34.42;;;20.33;;
72949;SDS011;64868;45.710;9.590;2023-03-01T00:30:35;34.92;;;17.85;;
72949;SDS011;64868;45.710;9.590;2023-03-01T00:33:05;33.03;;;18.25;;
72949;SDS011;64868;45.710;9.590;2023-03-01T00:35:38;34.30;;;18.95;;
72949;SDS011;64868;45.710;9.590;2023-03-01T00:40:45;33.42;;;17.88;;
72949;SDS011;64868;45.710;9.590;2023-03-01T00:43:13;35.78;;;18.08;;
72949;SDS011;64868;45.710;9.590;2023-03-01T00:45:39;33.00;;;18.13;;
72949;SDS011;64868;45.710;9.590;2023-03-01T00:48:08;32.63;;;18.17;;
72949;SDS011;64868;45.710;9.590;2023-03-01T00:50:33;31.98;;;17.98;;
72949;SDS011;64868;45.710;9.590;2023-03-01T00:52:59;32.83;;;18.42;;
72949;SDS011;64868;45.710;9.590;2023-03-01T00:55:24;33.20;;;18.40;;
72949;SDS011;64868;45.710;9.590;2023-03-01T00:57:52;34.88;;;18.98;;
72949;SDS011;64868;45.710;9.590;2023-03-01T01:00:18;33.60;;;17.63;;
72949;SDS011;64868;45.710;9.590;2023-03-01T01:02:45;33.95;;;18.52;;
72949;SDS011;64868;45.710;9.590;2023-03-01T01:05:15;35.13;;;18.75;;
72949;SDS011;64868;45.710;9.590;2023-03-01T01:07:45;31.98;;;17.70;;
72949;SDS011;64868;45.710;9.590;2023-03-01T01:10:11;35.92;;;18.77;;
72949;SDS011;64868;45.710;9.590;2023-03-01T01:12:44;35.00;;;17.65;;
72949;SDS011;64868;45.710;9.590;2023-03-01T01:15:10;33.38;;;18.52;;
72949;SDS011;64868;45.710;9.590;2023-03-01T01:17:38;33.05;;;17.65;;
72949;SDS011;64868;45.710;9.590;2023-03-01T01:20:04;30.98;;;17.30;;
72949;SDS011;64868;45.710;9.590;2023-03-01T01:22:30;30.00;;;17.13;;
72949;SDS011;64868;45.710;9.590;2023-03-01T01:24:56;31.58;;;18.02;;
72949;SDS011;64868;45.710;9.590;2023-03-01T01:27:21;33.42;;;18.02;;
72949;SDS011;64868;45.710;9.590;2023-03-01T01:29:52;34.95;;;18.52;;
72949;SDS011;64868;45.710;9.590;2023-03-01T01:32:21;34.15;;;18.52;;
72949;SDS011;64868;45.710;9.590;2023-03-01T01:34:47;32.88;;;18.95;;
72949;SDS011;64868;45.710;9.590;2023-03-01T01:37:15;34.38;;;18.30;;
72949;SDS011;64868;45.710;9.590;2023-03-01T01:39:43;34.60;;;19.02;;
72949;SDS011;64868;45.710;9.590;2023-03-01T01:42:12;29.67;;;16.20;;
72949;SDS011;64868;45.710;9.590;2023-03-01T01:44:42;32.58;;;17.08;;
72949;SDS011;64868;45.710;9.590;2023-03-01T01:47:12;34.40;;;17.50;;
72949;SDS011;64868;45.710;9.590;2023-03-01T01:52:31;32.03;;;17.52;;
72949;SDS011;64868;45.710;9.590;2023-03-01T01:55:11;31.05;;;17.08;;
72949;SDS011;64868;45.710;9.590;2023-03-01T01:57:42;34.80;;;18.65;;
72949;SDS011;64868;45.710;9.590;2023-03-01T02:02:39;30.00;;;16.30;;
72949;SDS011;64868;45.710;9.590;2023-03-01T02:05:08;29.67;;;16.73;;
72949;SDS011;64868;45.710;9.590;2023-03-01T02:07:42;32.00;;;16.98;;
72949;SDS011;64868;45.710;9.590;2023-03-01T02:10:08;33.28;;;18.42;;
72949;SDS011;64868;45.710;9.590;2023-03-01T02:12:34;31.67;;;17.48;;
72949;SDS011;64868;45.710;9.590;2023-03-01T02:15:02;33.58;;;17.55;;
72949;SDS011;64868;45.710;9.590;2023-03-01T02:17:28;30.73;;;16.35;;
72949;SDS011;64868;45.710;9.590;2023-03-01T02:22:24;32.88;;;17.05;;
72949;SDS011;64868;45.710;9.590;2023-03-01T02:30:36;28.70;;;15.73;;
72949;SDS011;64868;45.710;9.590;2023-03-01T02:33:02;29.65;;;16.50;;
72949;SDS011;64868;45.710;9.590;2023-03-01T02:35:32;31.77;;;16.40;;
72949;SDS011;64868;45.710;9.590;2023-03-01T02:38:00;32.67;;;17.25;;
72949;SDS011;64868;45.710;9.590;2023-03-01T02:40:28;32.00;;;17.55;;
72949;SDS011;64868;45.710;9.590;2023-03-01T02:42:58;30.13;;;16.35;;
72949;SDS011;64868;45.710;9.590;2023-03-01T02:45:24;32.78;;;17.05;;
72949;SDS011;64868;45.710;9.590;2023-03-01T02:47:55;31.60;;;16.92;;
72949;SDS011;64868;45.710;9.590;2023-03-01T02:55:52;32.92;;;17.77;;
72949;SDS011;64868;45.710;9.590;2023-03-01T02:58:18;33.70;;;17.45;;
72949;SDS011;64868;45.710;9.590;2023-03-01T03:00:47;32.20;;;16.27;;
72949;SDS011;64868;45.710;9.590;2023-03-01T03:03:14;31.58;;;16.90;;
72949;SDS011;64868;45.710;9.590;2023-03-01T03:05:41;31.52;;;17.15;;
72949;SDS011;64868;45.710;9.590;2023-03-01T03:08:07;31.15;;;17.70;;
72949;SDS011;64868;45.710;9.590;2023-03-01T03:10:37;30.80;;;15.73;;
72949;SDS011;64868;45.710;9.590;2023-03-01T03:13:07;30.98;;;17.58;;
72949;SDS011;64868;45.710;9.590;2023-03-01T03:18:06;33.13;;;16.80;;
72949;SDS011;64868;45.710;9.590;2023-03-01T03:20:34;30.17;;;16.67;;
72949;SDS011;64868;45.710;9.590;2023-03-01T03:23:01;27.13;;;15.20;;
72949;SDS011;64868;45.710;9.590;2023-03-01T03:25:29;33.97;;;17.05;;
72949;SDS011;64868;45.710;9.590;2023-03-01T03:27:57;31.65;;;15.75;;
72949;SDS011;64868;45.710;9.590;2023-03-01T03:30:29;33.25;;;17.38;;
72949;SDS011;64868;45.710;9.590;2023-03-01T03:32:58;31.20;;;16.70;;
72949;SDS011;64868;45.710;9.590;2023-03-01T03:35:28;32.15;;;17.13;;
72949;SDS011;64868;45.710;9.590;2023-03-01T03:37:56;30.45;;;16.77;;
72949;SDS011;64868;45.710;9.590;2023-03-01T03:40:38;30.33;;;17.23;;
72949;SDS011;64868;45.710;9.590;2023-03-01T03:43:06;33.67;;;17.92;;
72949;SDS011;64868;45.710;9.590;2023-03-01T03:45:34;31.38;;;17.85;;
72949;SDS011;64868;45.710;9.590;2023-03-01T03:48:03;32.15;;;17.02;;
72949;SDS011;64868;45.710;9.590;2023-03-01T03:50:32;33.58;;;18.75;;
72949;SDS011;64868;45.710;9.590;2023-03-01T03:53:00;32.38;;;16.98;;
72949;SDS011;64868;45.710;9.590;2023-03-01T03:55:27;31.35;;;17.67;;
72949;SDS011;64868;45.710;9.590;2023-03-01T03:57:59;30.23;;;16.30;;
72949;SDS011;64868;45.710;9.590;2023-03-01T04:00:31;31.25;;;17.15;;
72949;SDS011;64868;45.710;9.590;2023-03-01T04:02:58;33.90;;;17.65;;
72949;SDS011;64868;45.710;9.590;2023-03-01T04:05:26;33.67;;;17.90;;
72949;SDS011;64868;45.710;9.590;2023-03-01T04:07:55;29.30;;;16.08;;
72949;SDS011;64868;45.710;9.590;2023-03-01T04:10:27;31.48;;;17.52;;
72949;SDS011;64868;45.710;9.590;2023-03-01T04:13:00;31.52;;;16.88;;
72949;SDS011;64868;45.710;9.590;2023-03-01T04:15:26;33.75;;;17.13;;
72949;SDS011;64868;45.710;9.590;2023-03-01T04:17:53;30.77;;;15.95;;
72949;SDS011;64868;45.710;9.590;2023-03-01T04:20:21;32.70;;;17.08;;
72949;SDS011;64868;45.710;9.590;2023-03-01T04:25:25;32.53;;;16.88;;
72949;SDS011;64868;45.710;9.590;2023-03-01T04:27:51;30.08;;;15.95;;
72949;SDS011;64868;45.710;9.590;2023-03-01T04:30:16;32.03;;;16.15;;
72949;SDS011;64868;45.710;9.590;2023-03-01T04:32:42;32.20;;;16.25;;
72949;SDS011;64868;45.710;9.590;2023-03-01T04:35:10;32.60;;;16.17;;
72949;SDS011;64868;45.710;9.590;2023-03-01T04:37:36;29.85;;;15.70;;
72949;SDS011;64868;45.710;9.590;2023-03-01T04:40:06;34.28;;;16.55;;
72949;SDS011;64868;45.710;9.590;2023-03-01T04:42:40;31.08;;;16.02;;
72949;SDS011;64868;45.710;9.590;2023-03-01T04:45:05;30.05;;;16.30;;
72949;SDS011;64868;45.710;9.590;2023-03-01T04:47:40;30.92;;;16.02;;
72949;SDS011;64868;45.710;9.590;2023-03-01T04:50:08;29.05;;;16.02;;
72949;SDS011;64868;45.710;9.590;2023-03-01T04:52:34;30.08;;;16.17;;
72949;SDS011;64868;45.710;9.590;2023-03-01T04:55:02;31.65;;;16.88;;
72949;SDS011;64868;45.710;9.590;2023-03-01T04:57:31;33.00;;;16.98;;
72949;SDS011;64868;45.710;9.590;2023-03-01T04:59:59;31.27;;;17.50;;
72949;SDS011;64868;45.710;9.590;2023-03-01T05:02:46;30.92;;;16.17;;
72949;SDS011;64868;45.710;9.590;2023-03-01T05:05:14;30.45;;;16.73;;
72949;SDS011;64868;45.710;9.590;2023-03-01T05:07:40;32.65;;;16.58;;
72949;SDS011;64868;45.710;9.590;2023-03-01T05:10:05;32.60;;;16.30;;
72949;SDS011;64868;45.710;9.590;2023-03-01T05:12:31;30.73;;;16.67;;
72949;SDS011;64868;45.710;9.590;2023-03-01T05:14:57;30.77;;;15.18;;
72949;SDS011;64868;45.710;9.590;2023-03-01T05:17:23;30.70;;;16.20;;
72949;SDS011;64868;45.710;9.590;2023-03-01T05:19:49;31.17;;;16.02;;
72949;SDS011;64868;45.710;9.590;2023-03-01T05:22:15;35.42;;;17.60;;
72949;SDS011;64868;45.710;9.590;2023-03-01T05:24:41;32.85;;;17.17;;
72949;SDS011;64868;45.710;9.590;2023-03-01T05:27:09;29.63;;;15.52;;
72949;SDS011;64868;45.710;9.590;2023-03-01T05:29:37;33.08;;;16.77;;
72949;SDS011;64868;45.710;9.590;2023-03-01T05:32:06;33.05;;;16.60;;
72949;SDS011;64868;45.710;9.590;2023-03-01T05:34:34;31.05;;;16.27;;
72949;SDS011;64868;45.710;9.590;2023-03-01T05:37:01;33.78;;;16.38;;
72949;SDS011;64868;45.710;9.590;2023-03-01T05:39:27;31.00;;;16.75;;
72949;SDS011;64868;45.710;9.590;2023-03-01T05:41:56;34.00;;;16.63;;
72949;SDS011;64868;45.710;9.590;2023-03-01T05:44:26;28.80;;;15.55;;
72949;SDS011;64868;45.710;9.590;2023-03-01T05:46:55;33.15;;;16.42;;
72949;SDS011;64868;45.710;9.590;2023-03-01T05:49:27;30.80;;;16.58;;
72949;SDS011;64868;45.710;9.590;2023-03-01T05:52:01;30.63;;;16.33;;
72949;SDS011;64868;45.710;9.590;2023-03-01T05:54:33;33.90;;;16.55;;
72949;SDS011;64868;45.710;9.590;2023-03-01T05:57:06;29.95;;;16.20;;
72949;SDS011;64868;45.710;9.590;2023-03-01T05:59:36;32.17;;;16.88;;
72949;SDS011;64868;45.710;9.590;2023-03-01T06:02:04;32.40;;;16.02;;
72949;SDS011;64868;45.710;9.590;2023-03-01T06:04:36;30.27;;;16.23;;
72949;SDS011;64868;45.710;9.590;2023-03-01T06:07:09;31.80;;;17.02;;
72949;SDS011;64868;45.710;9.590;2023-03-01T06:09:39;32.92;;;16.33;;
72949;SDS011;64868;45.710;9.590;2023-03-01T06:12:12;32.97;;;17.08;;
72949;SDS011;64868;45.710;9.590;2023-03-01T06:14:44;32.95;;;15.85;;
72949;SDS011;64868;45.710;9.590;2023-03-01T06:17:17;32.78;;;15.52;;
72949;SDS011;64868;45.710;9.590;2023-03-01T06:19:50;29.58;;;16.02;;
72949;SDS011;64868;45.710;9.590;2023-03-01T06:22:22;31.27;;;16.75;;
72949;SDS011;64868;45.710;9.590;2023-03-01T06:24:50;29.75;;;15.30;;
72949;SDS011;64868;45.710;9.590;2023-03-01T06:27:23;28.58;;;15.18;;
72949;SDS011;64868;45.710;9.590;2023-03-01T06:29:55;29.02;;;16.08;;
72949;SDS011;64868;45.710;9.590;2023-03-01T06:32:25;30.63;;;15.68;;
72949;SDS011;64868;45.710;9.590;2023-03-01T06:34:58;27.75;;;14.43;;
72949;SDS011;64868;45.710;9.590;2023-03-01T06:37:28;26.95;;;14.63;;
72949;SDS011;64868;45.710;9.590;2023-03-01T06:40:01;30.20;;;16.02;;
72949;SDS011;64868;45.710;9.590;2023-03-01T06:42:35;27.10;;;14.40;;
72949;SDS011;64868;45.710;9.590;2023-03-01T06:45:05;29.55;;;15.13;;
72949;SDS011;64868;45.710;9.590;2023-03-01T06:47:37;29.90;;;15.25;;
72949;SDS011;64868;45.710;9.590;2023-03-01T06:50:15;27.35;;;14.65;;
72949;SDS011;64868;45.710;9.590;2023-03-01T06:52:46;26.70;;;14.68;;
72949;SDS011;64868;45.710;9.590;2023-03-01T06:55:24;27.63;;;14.95;;
72949;SDS011;64868;45.710;9.590;2023-03-01T07:00:24;28.45;;;13.95;;
72949;SDS011;64868;45.710;9.590;2023-03-01T07:02:57;27.90;;;14.90;;
72949;SDS011;64868;45.710;9.590;2023-03-01T07:05:30;25.77;;;13.82;;
72949;SDS011;64868;45.710;9.590;2023-03-01T07:08:00;26.50;;;14.30;;
72949;SDS011;64868;45.710;9.590;2023-03-01T07:10:32;27.80;;;13.90;;
72949;SDS011;64868;45.710;9.590;2023-03-01T07:13:09;22.17;;;12.90;;
72949;SDS011;64868;45.710;9.590;2023-03-01T07:15:43;26.30;;;14.63;;
72949;SDS011;64868;45.710;9.590;2023-03-01T07:18:16;28.13;;;15.50;;
72949;SDS011;64868;45.710;9.590;2023-03-01T07:20:44;28.08;;;15.20;;
72949;SDS011;64868;45.710;9.590;2023-03-01T07:25:46;29.75;;;14.82;;
72949;SDS011;64868;45.710;9.590;2023-03-01T07:28:21;27.67;;;14.43;;
72949;SDS011;64868;45.710;9.590;2023-03-01T07:30:48;32.22;;;16.20;;
72949;SDS011;64868;45.710;9.590;2023-03-01T07:33:20;29.48;;;15.77;;
72949;SDS011;64868;45.710;9.590;2023-03-01T07:35:55;27.08;;;14.30;;
72949;SDS011;64868;45.710;9.590;2023-03-01T07:38:25;28.95;;;14.40;;
72949;SDS011;64868;45.710;9.590;2023-03-01T07:41:00;29.90;;;15.13;;
72949;SDS011;64868;45.710;9.590;2023-03-01T07:43:33;28.52;;;14.20;;
72949;SDS011;64868;45.710;9.590;2023-03-01T07:46:03;29.52;;;15.35;;
72949;SDS011;64868;45.710;9.590;2023-03-01T07:48:35;33.50;;;15.10;;
72949;SDS011;64868;45.710;9.590;2023-03-01T07:51:05;29.77;;;14.90;;
72949;SDS011;64868;45.710;9.590;2023-03-01T07:53:39;30.70;;;16.50;;
72949;SDS011;64868;45.710;9.590;2023-03-01T07:56:12;31.10;;;16.63;;
72949;SDS011;64868;45.710;9.590;2023-03-01T07:58:43;29.40;;;15.45;;
72949;SDS011;64868;45.710;9.590;2023-03-01T08:01:17;29.33;;;14.73;;
72949;SDS011;64868;45.710;9.590;2023-03-01T08:03:49;25.15;;;14.32;;
72949;SDS011;64868;45.710;9.590;2023-03-01T08:06:20;29.23;;;15.02;;
72949;SDS011;64868;45.710;9.590;2023-03-01T08:08:49;28.52;;;14.95;;
72949;SDS011;64868;45.710;9.590;2023-03-01T08:11:22;26.55;;;14.07;;
72949;SDS011;64868;45.710;9.590;2023-03-01T08:13:51;23.67;;;13.63;;
72949;SDS011;64868;45.710;9.590;2023-03-01T08:16:21;24.90;;;13.18;;
72949;SDS011;64868;45.710;9.590;2023-03-01T08:18:54;25.60;;;13.95;;
72949;SDS011;64868;45.710;9.590;2023-03-01T08:21:27;24.23;;;13.52;;
72949;SDS011;64868;45.710;9.590;2023-03-01T08:24:00;23.65;;;12.73;;
72949;SDS011;64868;45.710;9.590;2023-03-01T08:26:33;26.58;;;13.98;;
72949;SDS011;64868;45.710;9.590;2023-03-01T08:29:07;27.15;;;15.80;;
72949;SDS011;64868;45.710;9.590;2023-03-01T08:31:39;28.90;;;16.00;;
72949;SDS011;64868;45.710;9.590;2023-03-01T08:34:13;30.17;;;15.77;;
72949;SDS011;64868;45.710;9.590;2023-03-01T08:36:44;25.65;;;14.55;;
72949;SDS011;64868;45.710;9.590;2023-03-01T08:39:17;27.88;;;15.88;;
72949;SDS011;64868;45.710;9.590;2023-03-01T08:41:48;31.63;;;16.05;;
72949;SDS011;64868;45.710;9.590;2023-03-01T08:44:21;30.75;;;17.00;;
72949;SDS011;64868;45.710;9.590;2023-03-01T08:46:49;28.92;;;16.33;;
72949;SDS011;64868;45.710;9.590;2023-03-01T08:49:21;26.88;;;17.05;;
72949;SDS011;64868;45.710;9.590;2023-03-01T08:51:49;29.58;;;17.13;;
72949;SDS011;64868;45.710;9.590;2023-03-01T08:54:22;30.55;;;17.27;;
72949;SDS011;64868;45.710;9.590;2023-03-01T08:56:52;27.55;;;16.13;;
72949;SDS011;64868;45.710;9.590;2023-03-01T08:59:25;27.50;;;14.82;;
72949;SDS011;64868;45.710;9.590;2023-03-01T09:01:57;25.58;;;15.60;;
72949;SDS011;64868;45.710;9.590;2023-03-01T09:04:30;27.40;;;15.85;;
72949;SDS011;64868;45.710;9.590;2023-03-01T09:07:00;22.67;;;14.95;;
72949;SDS011;64868;45.710;9.590;2023-03-01T09:09:31;25.10;;;15.90;;
72949;SDS011;64868;45.710;9.590;2023-03-01T09:12:00;24.00;;;16.35;;
72949;SDS011;64868;45.710;9.590;2023-03-01T09:14:31;27.73;;;17.20;;
72949;SDS011;64868;45.710;9.590;2023-03-01T09:17:08;29.90;;;18.15;;
72949;SDS011;64868;45.710;9.590;2023-03-01T09:20:06;29.48;;;18.48;;
72949;SDS011;64868;45.710;9.590;2023-03-01T09:22:48;29.73;;;17.50;;
72949;SDS011;64868;45.710;9.590;2023-03-01T09:25:29;26.65;;;16.58;;
72949;SDS011;64868;45.710;9.590;2023-03-01T09:28:12;29.50;;;17.73;;
72949;SDS011;64868;45.710;9.590;2023-03-01T09:30:57;29.58;;;16.80;;
72949;SDS011;64868;45.710;9.590;2023-03-01T09:33:31;26.65;;;16.67;;
72949;SDS011;64868;45.710;9.590;2023-03-01T09:36:04;26.20;;;16.50;;
72949;SDS011;64868;45.710;9.590;2023-03-01T09:38:40;26.65;;;16.17;;
72949;SDS011;64868;45.710;9.590;2023-03-01T09:44:02;27.70;;;17.42;;
72949;SDS011;64868;45.710;9.590;2023-03-01T09:46:37;26.67;;;16.55;;
72949;SDS011;64868;45.710;9.590;2023-03-01T09:54:46;24.50;;;16.35;;
72949;SDS011;64868;45.710;9.590;2023-03-01T09:57:28;26.45;;;16.73;;
72949;SDS011;64868;45.710;9.590;2023-03-01T10:11:00;27.88;;;15.63;;
72949;SDS011;64868;45.710;9.590;2023-03-01T10:13:37;23.10;;;14.63;;
72949;SDS011;64868;45.710;9.590;2023-03-01T10:17:00;25.38;;;15.73;;
72949;SDS011;64868;45.710;9.590;2023-03-01T10:19:20;23.70;;;16.45;;
72949;SDS011;64868;45.710;9.590;2023-03-01T10:21:56;32.53;;;15.45;;
72949;SDS011;64868;45.710;9.590;2023-03-01T10:24:31;22.88;;;15.88;;
72949;SDS011;64868;45.710;9.590;2023-03-01T10:27:04;26.63;;;17.80;;
72949;SDS011;64868;45.710;9.590;2023-03-01T10:29:39;26.83;;;17.15;;
72949;SDS011;64868;45.710;9.590;2023-03-01T10:32:18;22.90;;;16.45;;
72949;SDS011;64868;45.710;9.590;2023-03-01T10:34:49;25.80;;;15.40;;
72949;SDS011;64868;45.710;9.590;2023-03-01T10:37:21;25.15;;;16.60;;
72949;SDS011;64868;45.710;9.590;2023-03-01T10:40:08;28.92;;;16.27;;
72949;SDS011;64868;45.710;9.590;2023-03-01T10:42:46;24.48;;;16.40;;
72949;SDS011;64868;45.710;9.590;2023-03-01T10:45:37;28.75;;;16.45;;
72949;SDS011;64868;45.710;9.590;2023-03-01T10:48:13;26.90;;;18.67;;
72949;SDS011;64868;45.710;9.590;2023-03-01T10:50:43;50.50;;;28.95;;
72949;SDS011;64868;45.710;9.590;2023-03-01T10:53:34;54.15;;;27.05;;
72949;SDS011;64868;45.710;9.590;2023-03-01T10:56:19;40.08;;;21.17;;
72949;SDS011;64868;45.710;9.590;2023-03-01T10:59:02;25.33;;;17.80;;
72949;SDS011;64868;45.710;9.590;2023-03-01T11:01:46;25.30;;;16.75;;
72949;SDS011;64868;45.710;9.590;2023-03-01T11:05:03;27.67;;;18.48;;
72949;SDS011;64868;45.710;9.590;2023-03-01T11:07:59;28.95;;;19.55;;
72949;SDS011;64868;45.710;9.590;2023-03-01T11:10:34;24.13;;;16.85;;
72949;SDS011;64868;45.710;9.590;2023-03-01T11:13:15;25.15;;;16.92;;
72949;SDS011;64868;45.710;9.590;2023-03-01T11:18:33;28.45;;;17.77;;
72949;SDS011;64868;45.710;9.590;2023-03-01T11:21:05;26.17;;;16.85;;
72949;SDS011;64868;45.710;9.590;2023-03-01T11:23:38;25.30;;;16.98;;
72949;SDS011;64868;45.710;9.590;2023-03-01T11:26:09;25.90;;;16.55;;
72949;SDS011;64868;45.710;9.590;2023-03-01T11:28:42;22.42;;;14.70;;
72949;SDS011;64868;45.710;9.590;2023-03-01T11:31:18;20.92;;;14.00;;
72949;SDS011;64868;45.710;9.590;2023-03-01T11:33:49;20.90;;;12.65;;
72949;SDS011;64868;45.710;9.590;2023-03-01T11:39:05;19.20;;;11.00;;
72949;SDS011;64868;45.710;9.590;2023-03-01T11:41:54;19.02;;;11.18;;
72949;SDS011;64868;45.710;9.590;2023-03-01T11:44:49;19.88;;;11.88;;
72949;SDS011;64868;45.710;9.590;2023-03-01T11:50:25;20.17;;;11.48;;
72949;SDS011;64868;45.710;9.590;2023-03-01T12:01:51;19.98;;;11.93;;
72949;SDS011;64868;45.710;9.590;2023-03-01T12:10:36;22.13;;;10.95;;
72949;SDS011;64868;45.710;9.590;2023-03-01T12:30:35;23.20;;;12.57;;
72949;SDS011;64868;45.710;9.590;2023-03-01T12:50:49;27.73;;;13.75;;
72949;SDS011;64868;45.710;9.590;2023-03-01T12:55:58;25.35;;;14.75;;
72949;SDS011;64868;45.710;9.590;2023-03-01T12:58:35;25.50;;;15.32;;
72949;SDS011;64868;45.710;9.590;2023-03-01T13:06:35;27.27;;;15.73;;
72949;SDS011;64868;45.710;9.590;2023-03-01T13:23:25;26.88;;;16.17;;
72949;SDS011;64868;45.710;9.590;2023-03-01T13:39:03;29.35;;;16.45;;
72949;SDS011;64868;45.710;9.590;2023-03-01T13:41:53;30.20;;;16.70;;
72949;SDS011;64868;45.710;9.590;2023-03-01T13:44:28;26.10;;;15.18;;
72949;SDS011;64868;45.710;9.590;2023-03-01T13:49:50;30.48;;;16.65;;
72949;SDS011;64868;45.710;9.590;2023-03-01T13:58:03;28.35;;;16.60;;
72949;SDS011;64868;45.710;9.590;2023-03-01T14:00:44;27.52;;;15.43;;
72949;SDS011;64868;45.710;9.590;2023-03-01T14:03:17;29.33;;;15.20;;
72949;SDS011;64868;45.710;9.590;2023-03-01T14:05:57;24.38;;;14.35;;
72949;SDS011;64868;45.710;9.590;2023-03-01T14:08:31;30.48;;;16.35;;
72949;SDS011;64868;45.710;9.590;2023-03-01T14:11:06;28.02;;;16.88;;
72949;SDS011;64868;45.710;9.590;2023-03-01T14:14:14;28.33;;;15.82;;
72949;SDS011;64868;45.710;9.590;2023-03-01T14:16:59;26.70;;;15.35;;
72949;SDS011;64868;45.710;9.590;2023-03-01T14:19:35;28.15;;;16.40;;
72949;SDS011;64868;45.710;9.590;2023-03-01T14:25:00;27.90;;;16.13;;
72949;SDS011;64868;45.710;9.590;2023-03-01T14:27:37;27.52;;;15.90;;
72949;SDS011;64868;45.710;9.590;2023-03-01T14:30:14;27.42;;;15.65;;
72949;SDS011;64868;45.710;9.590;2023-03-01T14:32:48;28.25;;;15.40;;
72949;SDS011;64868;45.710;9.590;2023-03-01T14:35:30;28.02;;;15.55;;
72949;SDS011;64868;45.710;9.590;2023-03-01T14:38:04;29.88;;;16.17;;
72949;SDS011;64868;45.710;9.590;2023-03-01T14:40:47;32.50;;;16.40;;
72949;SDS011;64868;45.710;9.590;2023-03-01T14:43:22;25.15;;;15.10;;
72949;SDS011;64868;45.710;9.590;2023-03-01T14:45:54;28.23;;;16.05;;
72949;SDS011;64868;45.710;9.590;2023-03-01T14:48:23;31.42;;;17.10;;
72949;SDS011;64868;45.710;9.590;2023-03-01T14:50:56;28.27;;;16.17;;
72949;SDS011;64868;45.710;9.590;2023-03-01T14:53:29;30.50;;;16.42;;
72949;SDS011;64868;45.710;9.590;2023-03-01T14:56:01;28.40;;;15.43;;
72949;SDS011;64868;45.710;9.590;2023-03-01T14:58:32;30.35;;;16.55;;
72949;SDS011;64868;45.710;9.590;2023-03-01T15:01:02;26.27;;;16.33;;
72949;SDS011;64868;45.710;9.590;2023-03-01T15:03:37;32.55;;;16.08;;
72949;SDS011;64868;45.710;9.590;2023-03-01T15:06:11;30.80;;;16.38;;
72949;SDS011;64868;45.710;9.590;2023-03-01T15:08:44;32.10;;;16.30;;
72949;SDS011;64868;45.710;9.590;2023-03-01T15:11:21;28.13;;;15.55;;
72949;SDS011;64868;45.710;9.590;2023-03-01T15:13:50;27.17;;;15.82;;
72949;SDS011;64868;45.710;9.590;2023-03-01T15:16:32;29.33;;;16.13;;
72949;SDS011;64868;45.710;9.590;2023-03-01T15:19:14;27.42;;;15.75;;
72949;SDS011;64868;45.710;9.590;2023-03-01T15:21:45;29.52;;;15.75;;
72949;SDS011;64868;45.710;9.590;2023-03-01T15:24:20;32.50;;;18.00;;
72949;SDS011;64868;45.710;9.590;2023-03-01T15:26:55;31.48;;;16.63;;
72949;SDS011;64868;45.710;9.590;2023-03-01T15:29:28;30.15;;;16.17;;
72949;SDS011;64868;45.710;9.590;2023-03-01T15:32:20;30.30;;;17.08;;
72949;SDS011;64868;45.710;9.590;2023-03-01T15:34:52;35.78;;;16.70;;
72949;SDS011;64868;45.710;9.590;2023-03-01T15:40:29;31.58;;;16.30;;
72949;SDS011;64868;45.710;9.590;2023-03-01T15:43:01;36.80;;;17.52;;
72949;SDS011;64868;45.710;9.590;2023-03-01T15:45:31;28.67;;;16.58;;
72949;SDS011;64868;45.710;9.590;2023-03-01T15:48:05;30.27;;;17.25;;
72949;SDS011;64868;45.710;9.590;2023-03-01T15:50:56;31.25;;;16.33;;
72949;SDS011;64868;45.710;9.590;2023-03-01T15:53:25;32.42;;;17.30;;
72949;SDS011;64868;45.710;9.590;2023-03-01T15:55:59;35.90;;;17.55;;
72949;SDS011;64868;45.710;9.590;2023-03-01T15:58:35;31.63;;;18.48;;
72949;SDS011;64868;45.710;9.590;2023-03-01T16:01:02;31.48;;;17.25;;
72949;SDS011;64868;45.710;9.590;2023-03-01T16:03:38;31.85;;;17.60;;
72949;SDS011;64868;45.710;9.590;2023-03-01T16:06:09;36.08;;;17.23;;
72949;SDS011;64868;45.710;9.590;2023-03-01T16:11:14;30.83;;;17.50;;
72949;SDS011;64868;45.710;9.590;2023-03-01T16:13:44;30.63;;;16.75;;
72949;SDS011;64868;45.710;9.590;2023-03-01T16:16:17;35.22;;;17.73;;
72949;SDS011;64868;45.710;9.590;2023-03-01T16:18:49;31.00;;;16.98;;
72949;SDS011;64868;45.710;9.590;2023-03-01T16:21:22;31.90;;;17.92;;
72949;SDS011;64868;45.710;9.590;2023-03-01T16:23:51;32.95;;;17.90;;
72949;SDS011;64868;45.710;9.590;2023-03-01T16:26:20;37.10;;;18.23;;
72949;SDS011;64868;45.710;9.590;2023-03-01T16:28:47;34.30;;;18.30;;
72949;SDS011;64868;45.710;9.590;2023-03-01T16:31:21;32.45;;;18.10;;
72949;SDS011;64868;45.710;9.590;2023-03-01T16:33:54;34.35;;;18.35;;
72949;SDS011;64868;45.710;9.590;2023-03-01T16:36:23;33.00;;;17.70;;
72949;SDS011;64868;45.710;9.590;2023-03-01T16:38:56;34.60;;;18.25;;
72949;SDS011;64868;45.710;9.590;2023-03-01T16:41:29;33.88;;;18.17;;
72949;SDS011;64868;45.710;9.590;2023-03-01T16:44:00;37.05;;;17.05;;
72949;SDS011;64868;45.710;9.590;2023-03-01T16:46:28;34.80;;;16.75;;
72949;SDS011;64868;45.710;9.590;2023-03-01T16:49:03;31.58;;;17.58;;
72949;SDS011;64868;45.710;9.590;2023-03-01T16:51:36;32.90;;;16.98;;
72949;SDS011;64868;45.710;9.590;2023-03-01T16:54:08;38.55;;;18.45;;
72949;SDS011;64868;45.710;9.590;2023-03-01T16:56:39;34.58;;;18.38;;
72949;SDS011;64868;45.710;9.590;2023-03-01T16:59:06;32.90;;;17.67;;
72949;SDS011;64868;45.710;9.590;2023-03-01T17:01:37;32.70;;;17.98;;
72949;SDS011;64868;45.710;9.590;2023-03-01T17:04:10;34.05;;;19.25;;
72949;SDS011;64868;45.710;9.590;2023-03-01T17:06:43;34.45;;;18.92;;
72949;SDS011;64868;45.710;9.590;2023-03-01T17:09:15;37.00;;;19.70;;
72949;SDS011;64868;45.710;9.590;2023-03-01T17:11:49;35.30;;;19.63;;
72949;SDS011;64868;45.710;9.590;2023-03-01T17:14:19;29.00;;;16.55;;
72949;SDS011;64868;45.710;9.590;2023-03-01T17:16:53;30.33;;;16.73;;
72949;SDS011;64868;45.710;9.590;2023-03-01T17:19:23;30.30;;;17.25;;
72949;SDS011;64868;45.710;9.590;2023-03-01T17:21:56;32.60;;;17.88;;
72949;SDS011;64868;45.710;9.590;2023-03-01T17:24:23;33.67;;;17.35;;
72949;SDS011;64868;45.710;9.590;2023-03-01T17:26:56;36.65;;;19.10;;
72949;SDS011;64868;45.710;9.590;2023-03-01T17:29:29;33.28;;;17.80;;
72949;SDS011;64868;45.710;9.590;2023-03-01T17:31:59;30.67;;;17.88;;
72949;SDS011;64868;45.710;9.590;2023-03-01T17:34:26;32.10;;;17.52;;
72949;SDS011;64868;45.710;9.590;2023-03-01T17:36:57;34.30;;;17.58;;